Kumamoto Airport


Codes: RJFT/KMJ
Name: Kumamoto Airport
City: Kumamoto
Country: Japan
Elevation: 642 ft.
Wikipedia:

Photos at Kumamoto Airport


   Photos courtesy of SpottingLog. You can add your own sightings and photos by signing up for a free trial today.



No photos found.

Weather at Kumamoto Airport


Time (UTC)DescriptionTempratureWindCloud coverageVisibilityPressureHumidity
16-Jun-2024 00:00Few Clouds24°C7 mph, SW20%10000m1007hPa88%
16-Jun-2024 03:00Scattered Clouds26°C9 mph, SW31%10000m1007hPa75%
16-Jun-2024 06:00Broken Clouds27°C9 mph, SW51%10000m1006hPa66%
16-Jun-2024 09:00Light Rain25°C7 mph, SW100%10000m1008hPa72%
16-Jun-2024 12:00Light Rain22°C2 mph, S100%10000m1009hPa84%
16-Jun-2024 15:00Broken Clouds21°C2 mph, SE73%10000m1011hPa91%
16-Jun-2024 18:00Light Rain20°C2 mph, E79%10000m1010hPa91%
16-Jun-2024 21:00Broken Clouds20°C2 mph, SE81%10000m1011hPa88%
17-Jun-2024 00:00Overcast Clouds25°C2 mph, SW90%10000m1011hPa70%
17-Jun-2024 03:00Overcast Clouds29°C7 mph, W97%10000m1010hPa48%
17-Jun-2024 06:00Overcast Clouds28°C9 mph, W96%10000m1008hPa47%
17-Jun-2024 09:00Light Rain22°C2 mph, SE100%10000m1008hPa90%
17-Jun-2024 12:00Moderate Rain20°C7 mph, NE100%3150m1005hPa97%
17-Jun-2024 15:00Heavy Intensity Rain20°C7 mph, NE100%10000m1004hPa97%
17-Jun-2024 18:00Light Rain19°C4 mph, NE100%10000m1003hPa97%
17-Jun-2024 21:00Light Rain19°C4 mph, NE100%10000m1003hPa95%
18-Jun-2024 00:00Overcast Clouds22°C4 mph, N100%10000m1004hPa81%
18-Jun-2024 03:00Broken Clouds28°C4 mph, N84%10000m1004hPa54%
18-Jun-2024 06:00Scattered Clouds31°C7 mph, N42%10000m1003hPa29%
18-Jun-2024 09:00Clear Sky28°C4 mph, NW2%10000m1004hPa56%
18-Jun-2024 12:00Scattered Clouds22°C4 mph, SE34%10000m1007hPa76%
18-Jun-2024 15:00Broken Clouds20°C2 mph, E69%10000m1009hPa76%
18-Jun-2024 18:00Broken Clouds19°C2 mph, E80%10000m1009hPa77%
18-Jun-2024 21:00Broken Clouds19°C2 mph, E84%10000m1010hPa77%
19-Jun-2024 00:00Overcast Clouds24°C2 mph, W89%10000m1010hPa63%
19-Jun-2024 03:00Overcast Clouds27°C4 mph, W100%10000m1010hPa52%
19-Jun-2024 06:00Overcast Clouds27°C2 mph, W100%10000m1009hPa57%
19-Jun-2024 09:00Overcast Clouds24°C0 mph, W100%10000m1009hPa73%
19-Jun-2024 12:00Overcast Clouds22°C2 mph, E100%10000m1009hPa77%
19-Jun-2024 15:00Overcast Clouds21°C0 mph, SW100%10000m1010hPa79%
19-Jun-2024 18:00Overcast Clouds19°C2 mph, E86%10000m1010hPa85%
19-Jun-2024 21:00Clear Sky20°C2 mph, SE0%10000m1011hPa85%
20-Jun-2024 00:00Clear Sky25°C2 mph, W3%10000m1011hPa65%
20-Jun-2024 03:00Broken Clouds30°C4 mph, W65%10000m1010hPa49%
20-Jun-2024 06:00Broken Clouds30°C7 mph, SW81%10000m1009hPa46%
20-Jun-2024 09:00Overcast Clouds26°C2 mph, W97%10000m1010hPa64%
20-Jun-2024 12:00Overcast Clouds23°C2 mph, SE99%10000m1011hPa75%
20-Jun-2024 15:00Overcast Clouds22°C2 mph, E100%10000m1010hPa72%
20-Jun-2024 18:00Overcast Clouds21°C4 mph, E100%10000m1009hPa65%
20-Jun-2024 21:00Overcast Clouds20°C4 mph, E98%10000m1009hPa66%